ADDS METAR Data

Data at: 2334 UTC 26 May 2018

METAR for:KPHX (Phoenix/Sky Harbor, AZ, US)
Text:KPHX 262251Z 25015G23KT 10SM FEW180 SCT250 33/M05 A2974 RMK AO2 SLP050 T03331050
Temperature: 33.3°C ( 92°F)
Dewpoint: -5.0°C ( 23°F) [RH = 8%]
Pressure (altimeter):29.74 inches Hg (1007.2 mb) [Sea level pressure: 1005.0 mb]
Winds:from the WSW (250 degrees) at 17 MPH (15 knots; 7.7 m/s) gusting to 26 MPH (23 knots; 11.8 m/s)
Visibility:10 or more sm (16+ km)
Ceiling:at least 12,000 feet AGL
Clouds: few clouds at 18000 feet AGL, scattered clouds at 25000 feet AGL